Rock Stream, New York
Current Conditions -  °F | °C
As of 1:53 PM on Tuesday 27 Jan 2015 (Local Time) from KPEO Reporting Station
Light Snow Light Snow  
Wind Chill:   Ceiling: 1700
Heat Index: 14°   Visibility: 4mi
Dew Point:   Wind: 13mph
Humidity: 71%   Direction: 320°NW
Pressure: 29.92"   Gusts: 21mph
Location:  42.47°N, 76.93°W
Report Text: KPEO 271853Z AUTO 32011G18KT 4SM -SN OVC017 M10/M14 A2992 RMK AO2 SLP152 P0000 T11001144
Loading
Personal Weather Stations






























Interactive Weather Map New forecast layout! Learn more

10-Day Weather Forecast

Advertisements
Track Severe Weather on mobile